KDSV

Dansville Municipal Airport

Dansville, New York, USA
METAR KDSV 231554Z AUTO 13012KT 10SM OVC020 04/01 A3026 RMK AO2 SLP263 T00440006 $
Observed Flight Rules
Feb-23 @ 15:54 UTC (41 minutes ago) Marginal Visual Flight Rules
Wind Visibility Clouds
130° at 12 knots 10 miles
  • Overcast at 2,000' AGL
Temperatures Readings
Current 4°C / 39°F
Dewpoint 1°C / 34°F
Humidity 81%
Altimeter 30.26" Hg
Pressure 1026.3 hPa
Elevation 198
METAR KDSV 231554Z AUTO 13012KT 10SM OVC020 04/01 A3026 RMK AO2 SLP263 T00440006 $
Observed Flight Rules
Feb-23 @ 15:54 UTC
(41 minutes ago)
MVFR
Wind Visibility
130° at 12 knots 10 miles
Clouds
  • Overcast at 2,000' AGL
Temperature Dewpoint
4°C / 39°F 1°C / 34°F
Humidity Altimeter Pressure
81% 30.26" Hg 1026.3 hPa